sensor_id;sensor_type;location;lat;lon;timestamp;P1;durP1;ratioP1;P2;durP2;ratioP2
61252;SDS011;47127;47.516;8.596;2022-12-31T00:01:07;10.65;;;6.40;;
61252;SDS011;47127;47.516;8.596;2022-12-31T00:03:34;1.90;;;1.20;;
61252;SDS011;47127;47.516;8.596;2022-12-31T00:06:01;3.10;;;1.00;;
61252;SDS011;47127;47.516;8.596;2022-12-31T00:08:39;1.85;;;1.13;;
61252;SDS011;47127;47.516;8.596;2022-12-31T00:11:04;2.95;;;1.00;;
61252;SDS011;47127;47.516;8.596;2022-12-31T00:13:30;2.10;;;1.00;;
61252;SDS011;47127;47.516;8.596;2022-12-31T00:16:04;2.50;;;1.17;;
61252;SDS011;47127;47.516;8.596;2022-12-31T00:18:34;9.80;;;6.82;;
61252;SDS011;47127;47.516;8.596;2022-12-31T00:21:03;6.35;;;3.20;;
61252;SDS011;47127;47.516;8.596;2022-12-31T00:23:32;2.78;;;1.20;;
61252;SDS011;47127;47.516;8.596;2022-12-31T00:26:02;2.58;;;1.27;;
61252;SDS011;47127;47.516;8.596;2022-12-31T00:28:28;3.20;;;1.20;;
61252;SDS011;47127;47.516;8.596;2022-12-31T00:30:54;4.40;;;1.02;;
61252;SDS011;47127;47.516;8.596;2022-12-31T00:33:19;2.15;;;0.98;;
61252;SDS011;47127;47.516;8.596;2022-12-31T00:35:45;2.50;;;0.93;;
61252;SDS011;47127;47.516;8.596;2022-12-31T00:38:10;4.15;;;1.30;;
61252;SDS011;47127;47.516;8.596;2022-12-31T00:40:36;2.50;;;1.05;;
61252;SDS011;47127;47.516;8.596;2022-12-31T00:43:01;1.77;;;0.80;;
61252;SDS011;47127;47.516;8.596;2022-12-31T00:45:27;1.23;;;0.80;;
61252;SDS011;47127;47.516;8.596;2022-12-31T00:47:52;1.20;;;0.73;;
61252;SDS011;47127;47.516;8.596;2022-12-31T00:50:18;2.13;;;0.60;;
61252;SDS011;47127;47.516;8.596;2022-12-31T00:52:43;1.27;;;0.77;;
61252;SDS011;47127;47.516;8.596;2022-12-31T00:55:09;0.85;;;0.60;;
61252;SDS011;47127;47.516;8.596;2022-12-31T00:57:34;2.60;;;0.80;;
61252;SDS011;47127;47.516;8.596;2022-12-31T01:00:00;1.33;;;0.68;;
61252;SDS011;47127;47.516;8.596;2022-12-31T01:02:25;1.10;;;0.60;;
61252;SDS011;47127;47.516;8.596;2022-12-31T01:04:51;1.00;;;0.55;;
61252;SDS011;47127;47.516;8.596;2022-12-31T01:07:16;1.65;;;0.70;;
61252;SDS011;47127;47.516;8.596;2022-12-31T01:09:42;1.92;;;0.50;;
61252;SDS011;47127;47.516;8.596;2022-12-31T01:12:08;1.48;;;0.63;;
61252;SDS011;47127;47.516;8.596;2022-12-31T01:14:33;0.88;;;0.40;;
61252;SDS011;47127;47.516;8.596;2022-12-31T01:16:59;0.63;;;0.32;;
61252;SDS011;47127;47.516;8.596;2022-12-31T01:19:25;1.17;;;0.50;;
61252;SDS011;47127;47.516;8.596;2022-12-31T01:21:52;1.17;;;0.50;;
61252;SDS011;47127;47.516;8.596;2022-12-31T01:24:19;2.53;;;0.50;;
61252;SDS011;47127;47.516;8.596;2022-12-31T01:26:45;1.52;;;0.50;;
61252;SDS011;47127;47.516;8.596;2022-12-31T01:29:11;2.47;;;0.47;;
61252;SDS011;47127;47.516;8.596;2022-12-31T01:31:37;2.13;;;0.50;;
61252;SDS011;47127;47.516;8.596;2022-12-31T01:34:03;3.90;;;0.80;;
61252;SDS011;47127;47.516;8.596;2022-12-31T01:36:30;1.00;;;0.57;;
61252;SDS011;47127;47.516;8.596;2022-12-31T01:38:58;2.17;;;0.50;;
61252;SDS011;47127;47.516;8.596;2022-12-31T01:41:32;0.93;;;0.65;;
61252;SDS011;47127;47.516;8.596;2022-12-31T01:46:48;1.48;;;0.50;;
61252;SDS011;47127;47.516;8.596;2022-12-31T01:49:29;1.13;;;0.50;;
61252;SDS011;47127;47.516;8.596;2022-12-31T01:52:15;3.97;;;0.65;;
61252;SDS011;47127;47.516;8.596;2022-12-31T01:54:47;0.40;;;0.30;;
61252;SDS011;47127;47.516;8.596;2022-12-31T01:57:34;1.00;;;0.50;;
61252;SDS011;47127;47.516;8.596;2022-12-31T02:00:01;1.48;;;0.50;;
61252;SDS011;47127;47.516;8.596;2022-12-31T02:02:27;2.70;;;0.60;;
61252;SDS011;47127;47.516;8.596;2022-12-31T02:04:53;1.67;;;0.68;;
61252;SDS011;47127;47.516;8.596;2022-12-31T02:07:21;1.90;;;1.10;;
61252;SDS011;47127;47.516;8.596;2022-12-31T02:09:47;2.33;;;0.80;;
61252;SDS011;47127;47.516;8.596;2022-12-31T02:12:13;1.55;;;0.60;;
61252;SDS011;47127;47.516;8.596;2022-12-31T02:14:42;2.38;;;0.50;;
61252;SDS011;47127;47.516;8.596;2022-12-31T02:31:15;0.73;;;0.70;;
61252;SDS011;47127;47.516;8.596;2022-12-31T02:36:27;1.63;;;0.60;;
61252;SDS011;47127;47.516;8.596;2022-12-31T02:38:57;1.27;;;0.63;;
61252;SDS011;47127;47.516;8.596;2022-12-31T02:41:24;2.15;;;0.73;;
61252;SDS011;47127;47.516;8.596;2022-12-31T02:52:26;3.95;;;0.80;;
61252;SDS011;47127;47.516;8.596;2022-12-31T03:00:44;0.80;;;0.50;;
61252;SDS011;47127;47.516;8.596;2022-12-31T03:03:36;1.20;;;0.60;;
61252;SDS011;47127;47.516;8.596;2022-12-31T03:06:03;1.10;;;0.77;;
61252;SDS011;47127;47.516;8.596;2022-12-31T03:08:29;1.98;;;0.52;;
61252;SDS011;47127;47.516;8.596;2022-12-31T03:11:01;1.23;;;0.60;;
61252;SDS011;47127;47.516;8.596;2022-12-31T03:13:47;1.80;;;0.73;;
61252;SDS011;47127;47.516;8.596;2022-12-31T03:16:12;0.85;;;0.52;;
61252;SDS011;47127;47.516;8.596;2022-12-31T03:18:38;1.17;;;0.68;;
61252;SDS011;47127;47.516;8.596;2022-12-31T03:21:33;1.17;;;0.55;;
61252;SDS011;47127;47.516;8.596;2022-12-31T03:24:17;1.27;;;0.40;;
61252;SDS011;47127;47.516;8.596;2022-12-31T03:27:01;0.95;;;0.40;;
61252;SDS011;47127;47.516;8.596;2022-12-31T03:29:26;3.65;;;0.60;;
61252;SDS011;47127;47.516;8.596;2022-12-31T03:31:52;0.93;;;0.50;;
61252;SDS011;47127;47.516;8.596;2022-12-31T03:34:17;1.17;;;0.40;;
61252;SDS011;47127;47.516;8.596;2022-12-31T03:36:43;2.00;;;0.40;;
61252;SDS011;47127;47.516;8.596;2022-12-31T03:39:08;1.27;;;0.60;;
61252;SDS011;47127;47.516;8.596;2022-12-31T03:41:34;2.75;;;0.40;;
61252;SDS011;47127;47.516;8.596;2022-12-31T03:43:59;2.25;;;0.68;;
61252;SDS011;47127;47.516;8.596;2022-12-31T03:46:25;1.67;;;0.80;;
61252;SDS011;47127;47.516;8.596;2022-12-31T03:48:50;2.28;;;0.57;;
61252;SDS011;47127;47.516;8.596;2022-12-31T03:51:16;1.23;;;0.50;;
61252;SDS011;47127;47.516;8.596;2022-12-31T03:53:41;1.38;;;0.40;;
61252;SDS011;47127;47.516;8.596;2022-12-31T03:56:07;0.77;;;0.47;;
61252;SDS011;47127;47.516;8.596;2022-12-31T03:58:32;1.92;;;0.50;;
61252;SDS011;47127;47.516;8.596;2022-12-31T04:00:58;1.05;;;0.45;;
61252;SDS011;47127;47.516;8.596;2022-12-31T04:03:23;1.35;;;0.70;;
61252;SDS011;47127;47.516;8.596;2022-12-31T04:05:53;1.10;;;0.50;;
61252;SDS011;47127;47.516;8.596;2022-12-31T04:08:19;0.75;;;0.50;;
61252;SDS011;47127;47.516;8.596;2022-12-31T04:10:45;2.05;;;0.70;;
61252;SDS011;47127;47.516;8.596;2022-12-31T04:13:10;1.73;;;0.45;;
61252;SDS011;47127;47.516;8.596;2022-12-31T04:15:36;2.55;;;0.50;;
61252;SDS011;47127;47.516;8.596;2022-12-31T04:18:01;1.98;;;0.50;;
61252;SDS011;47127;47.516;8.596;2022-12-31T04:20:27;1.67;;;0.40;;
61252;SDS011;47127;47.516;8.596;2022-12-31T04:22:52;0.75;;;0.30;;
61252;SDS011;47127;47.516;8.596;2022-12-31T04:25:18;0.80;;;0.50;;
61252;SDS011;47127;47.516;8.596;2022-12-31T04:27:43;2.42;;;0.60;;
61252;SDS011;47127;47.516;8.596;2022-12-31T04:30:10;2.00;;;0.50;;
61252;SDS011;47127;47.516;8.596;2022-12-31T04:32:36;1.02;;;0.55;;
61252;SDS011;47127;47.516;8.596;2022-12-31T04:35:02;2.17;;;0.43;;
61252;SDS011;47127;47.516;8.596;2022-12-31T04:37:28;1.42;;;0.50;;
61252;SDS011;47127;47.516;8.596;2022-12-31T04:39:53;0.60;;;0.40;;
61252;SDS011;47127;47.516;8.596;2022-12-31T04:42:19;1.08;;;0.45;;
61252;SDS011;47127;47.516;8.596;2022-12-31T04:44:44;2.08;;;0.60;;
61252;SDS011;47127;47.516;8.596;2022-12-31T04:47:10;1.88;;;0.50;;
61252;SDS011;47127;47.516;8.596;2022-12-31T04:49:35;1.20;;;0.50;;
61252;SDS011;47127;47.516;8.596;2022-12-31T04:52:01;1.00;;;0.50;;
61252;SDS011;47127;47.516;8.596;2022-12-31T04:54:27;1.67;;;0.70;;
61252;SDS011;47127;47.516;8.596;2022-12-31T04:56:53;1.20;;;0.40;;
61252;SDS011;47127;47.516;8.596;2022-12-31T04:59:18;1.00;;;0.43;;
61252;SDS011;47127;47.516;8.596;2022-12-31T05:01:43;2.22;;;0.60;;
61252;SDS011;47127;47.516;8.596;2022-12-31T05:04:09;1.00;;;0.47;;
61252;SDS011;47127;47.516;8.596;2022-12-31T05:06:35;2.47;;;0.50;;
61252;SDS011;47127;47.516;8.596;2022-12-31T05:09:00;3.65;;;0.70;;
61252;SDS011;47127;47.516;8.596;2022-12-31T05:11:26;1.02;;;0.60;;
61252;SDS011;47127;47.516;8.596;2022-12-31T05:13:51;1.30;;;0.70;;
61252;SDS011;47127;47.516;8.596;2022-12-31T05:16:17;1.50;;;0.65;;
61252;SDS011;47127;47.516;8.596;2022-12-31T05:18:42;3.13;;;0.80;;
61252;SDS011;47127;47.516;8.596;2022-12-31T05:21:08;0.93;;;0.50;;
61252;SDS011;47127;47.516;8.596;2022-12-31T05:23:35;1.10;;;0.45;;
61252;SDS011;47127;47.516;8.596;2022-12-31T05:26:00;2.70;;;0.90;;
61252;SDS011;47127;47.516;8.596;2022-12-31T05:28:26;4.65;;;2.03;;
61252;SDS011;47127;47.516;8.596;2022-12-31T05:30:52;10.68;;;2.25;;
61252;SDS011;47127;47.516;8.596;2022-12-31T05:33:18;6.15;;;2.40;;
61252;SDS011;47127;47.516;8.596;2022-12-31T05:35:44;3.83;;;1.63;;
61252;SDS011;47127;47.516;8.596;2022-12-31T05:38:10;2.58;;;1.40;;
61252;SDS011;47127;47.516;8.596;2022-12-31T05:40:36;1.92;;;0.95;;
61252;SDS011;47127;47.516;8.596;2022-12-31T05:43:01;0.90;;;0.70;;
61252;SDS011;47127;47.516;8.596;2022-12-31T05:45:27;2.03;;;0.90;;
61252;SDS011;47127;47.516;8.596;2022-12-31T05:47:52;2.03;;;0.63;;
61252;SDS011;47127;47.516;8.596;2022-12-31T05:50:18;1.33;;;0.88;;
61252;SDS011;47127;47.516;8.596;2022-12-31T05:52:44;1.13;;;0.60;;
61252;SDS011;47127;47.516;8.596;2022-12-31T05:55:10;1.45;;;0.80;;
61252;SDS011;47127;47.516;8.596;2022-12-31T05:57:36;1.02;;;0.55;;
61252;SDS011;47127;47.516;8.596;2022-12-31T06:00:02;1.67;;;0.70;;
61252;SDS011;47127;47.516;8.596;2022-12-31T06:02:31;1.70;;;0.70;;
61252;SDS011;47127;47.516;8.596;2022-12-31T06:04:57;0.90;;;0.70;;
61252;SDS011;47127;47.516;8.596;2022-12-31T06:07:22;0.88;;;0.50;;
61252;SDS011;47127;47.516;8.596;2022-12-31T06:09:48;2.70;;;0.70;;
61252;SDS011;47127;47.516;8.596;2022-12-31T06:12:13;1.25;;;0.60;;
61252;SDS011;47127;47.516;8.596;2022-12-31T06:14:39;2.13;;;0.90;;
61252;SDS011;47127;47.516;8.596;2022-12-31T06:17:05;2.20;;;0.65;;
61252;SDS011;47127;47.516;8.596;2022-12-31T06:19:30;1.08;;;0.70;;
61252;SDS011;47127;47.516;8.596;2022-12-31T06:21:56;1.17;;;0.43;;
61252;SDS011;47127;47.516;8.596;2022-12-31T06:24:22;1.33;;;0.63;;
61252;SDS011;47127;47.516;8.596;2022-12-31T06:26:48;1.23;;;0.50;;
61252;SDS011;47127;47.516;8.596;2022-12-31T06:29:13;0.70;;;0.60;;
61252;SDS011;47127;47.516;8.596;2022-12-31T06:31:39;3.05;;;0.60;;
61252;SDS011;47127;47.516;8.596;2022-12-31T06:34:04;4.20;;;0.52;;
61252;SDS011;47127;47.516;8.596;2022-12-31T06:36:30;1.13;;;0.50;;
61252;SDS011;47127;47.516;8.596;2022-12-31T06:38:56;1.77;;;0.60;;
61252;SDS011;47127;47.516;8.596;2022-12-31T06:41:21;0.93;;;0.50;;
61252;SDS011;47127;47.516;8.596;2022-12-31T06:43:47;2.50;;;0.63;;
61252;SDS011;47127;47.516;8.596;2022-12-31T06:46:13;1.02;;;0.70;;
61252;SDS011;47127;47.516;8.596;2022-12-31T06:48:40;1.92;;;0.60;;
61252;SDS011;47127;47.516;8.596;2022-12-31T06:51:09;1.33;;;0.68;;
61252;SDS011;47127;47.516;8.596;2022-12-31T06:53:37;0.60;;;0.40;;
61252;SDS011;47127;47.516;8.596;2022-12-31T06:56:04;1.90;;;0.65;;
61252;SDS011;47127;47.516;8.596;2022-12-31T06:58:31;3.33;;;0.85;;
61252;SDS011;47127;47.516;8.596;2022-12-31T07:01:00;1.50;;;0.65;;
61252;SDS011;47127;47.516;8.596;2022-12-31T07:09:10;1.02;;;0.60;;
61252;SDS011;47127;47.516;8.596;2022-12-31T07:11:59;2.40;;;0.70;;
61252;SDS011;47127;47.516;8.596;2022-12-31T07:20:18;0.82;;;0.40;;
61252;SDS011;47127;47.516;8.596;2022-12-31T07:22:44;2.17;;;0.60;;
61252;SDS011;47127;47.516;8.596;2022-12-31T07:25:14;0.68;;;0.55;;
61252;SDS011;47127;47.516;8.596;2022-12-31T07:27:46;1.58;;;0.65;;
61252;SDS011;47127;47.516;8.596;2022-12-31T07:30:45;1.00;;;0.60;;
61252;SDS011;47127;47.516;8.596;2022-12-31T07:36:04;1.88;;;0.60;;
61252;SDS011;47127;47.516;8.596;2022-12-31T07:41:20;0.43;;;0.38;;
61252;SDS011;47127;47.516;8.596;2022-12-31T07:44:02;1.45;;;0.60;;
61252;SDS011;47127;47.516;8.596;2022-12-31T07:49:19;4.38;;;1.02;;
61252;SDS011;47127;47.516;8.596;2022-12-31T07:51:45;0.95;;;0.50;;
61252;SDS011;47127;47.516;8.596;2022-12-31T07:54:11;1.48;;;0.63;;
61252;SDS011;47127;47.516;8.596;2022-12-31T07:56:37;1.20;;;0.57;;
61252;SDS011;47127;47.516;8.596;2022-12-31T08:02:34;2.05;;;0.70;;
61252;SDS011;47127;47.516;8.596;2022-12-31T08:10:33;1.10;;;0.50;;
61252;SDS011;47127;47.516;8.596;2022-12-31T08:13:03;0.73;;;0.57;;
61252;SDS011;47127;47.516;8.596;2022-12-31T08:15:33;0.77;;;0.40;;
61252;SDS011;47127;47.516;8.596;2022-12-31T08:18:01;1.58;;;0.60;;
61252;SDS011;47127;47.516;8.596;2022-12-31T08:20:27;1.13;;;0.50;;
61252;SDS011;47127;47.516;8.596;2022-12-31T08:28:06;0.77;;;0.50;;
61252;SDS011;47127;47.516;8.596;2022-12-31T08:30:43;0.80;;;0.40;;
61252;SDS011;47127;47.516;8.596;2022-12-31T08:33:31;2.53;;;0.65;;
61252;SDS011;47127;47.516;8.596;2022-12-31T08:41:23;2.72;;;0.60;;
61252;SDS011;47127;47.516;8.596;2022-12-31T08:43:59;0.73;;;0.47;;
61252;SDS011;47127;47.516;8.596;2022-12-31T08:49:10;1.70;;;0.40;;
61252;SDS011;47127;47.516;8.596;2022-12-31T08:51:36;1.65;;;0.77;;
61252;SDS011;47127;47.516;8.596;2022-12-31T08:54:02;1.45;;;1.13;;
61252;SDS011;47127;47.516;8.596;2022-12-31T08:56:32;2.67;;;0.95;;
61252;SDS011;47127;47.516;8.596;2022-12-31T09:01:42;4.40;;;0.88;;
61252;SDS011;47127;47.516;8.596;2022-12-31T09:07:22;1.63;;;0.43;;
61252;SDS011;47127;47.516;8.596;2022-12-31T09:12:53;1.02;;;0.50;;
61252;SDS011;47127;47.516;8.596;2022-12-31T09:15:44;1.33;;;0.50;;
61252;SDS011;47127;47.516;8.596;2022-12-31T09:18:11;1.33;;;0.55;;
61252;SDS011;47127;47.516;8.596;2022-12-31T09:20:37;2.75;;;0.75;;
61252;SDS011;47127;47.516;8.596;2022-12-31T09:23:03;1.35;;;0.40;;
61252;SDS011;47127;47.516;8.596;2022-12-31T09:25:30;0.52;;;0.30;;
61252;SDS011;47127;47.516;8.596;2022-12-31T09:28:03;1.33;;;0.60;;
61252;SDS011;47127;47.516;8.596;2022-12-31T09:33:32;0.80;;;0.45;;
61252;SDS011;47127;47.516;8.596;2022-12-31T09:36:37;1.65;;;0.30;;
61252;SDS011;47127;47.516;8.596;2022-12-31T09:39:15;3.90;;;0.68;;
61252;SDS011;47127;47.516;8.596;2022-12-31T09:41:57;1.05;;;0.45;;
61252;SDS011;47127;47.516;8.596;2022-12-31T09:53:52;1.10;;;0.57;;
61252;SDS011;47127;47.516;8.596;2022-12-31T09:56:58;1.25;;;0.50;;
61252;SDS011;47127;47.516;8.596;2022-12-31T09:59:51;1.55;;;0.40;;
61252;SDS011;47127;47.516;8.596;2022-12-31T10:02:46;0.88;;;0.40;;
61252;SDS011;47127;47.516;8.596;2022-12-31T10:14:00;3.08;;;0.90;;
61252;SDS011;47127;47.516;8.596;2022-12-31T10:28:35;1.92;;;0.43;;
61252;SDS011;47127;47.516;8.596;2022-12-31T10:31:39;1.05;;;0.60;;
61252;SDS011;47127;47.516;8.596;2022-12-31T10:34:21;1.83;;;0.98;;
61252;SDS011;47127;47.516;8.596;2022-12-31T10:36:52;2.38;;;0.63;;
61252;SDS011;47127;47.516;8.596;2022-12-31T11:00:45;1.13;;;0.60;;
61252;SDS011;47127;47.516;8.596;2022-12-31T11:03:47;1.50;;;0.68;;
61252;SDS011;47127;47.516;8.596;2022-12-31T11:15:54;1.40;;;0.60;;
61252;SDS011;47127;47.516;8.596;2022-12-31T11:18:32;1.77;;;0.60;;
61252;SDS011;47127;47.516;8.596;2022-12-31T11:27:37;2.05;;;0.90;;
61252;SDS011;47127;47.516;8.596;2022-12-31T11:38:39;0.98;;;0.40;;
61252;SDS011;47127;47.516;8.596;2022-12-31T11:41:27;0.40;;;0.38;;
61252;SDS011;47127;47.516;8.596;2022-12-31T11:44:11;1.30;;;0.60;;
61252;SDS011;47127;47.516;8.596;2022-12-31T11:47:08;1.23;;;0.65;;
61252;SDS011;47127;47.516;8.596;2022-12-31T11:49:59;1.73;;;0.40;;
61252;SDS011;47127;47.516;8.596;2022-12-31T11:55:22;0.50;;;0.40;;
61252;SDS011;47127;47.516;8.596;2022-12-31T11:57:58;2.10;;;0.60;;
61252;SDS011;47127;47.516;8.596;2022-12-31T12:00:26;1.33;;;0.60;;
61252;SDS011;47127;47.516;8.596;2022-12-31T12:02:56;1.63;;;0.70;;
61252;SDS011;47127;47.516;8.596;2022-12-31T12:05:25;2.13;;;0.50;;
61252;SDS011;47127;47.516;8.596;2022-12-31T12:07:52;1.92;;;0.68;;
61252;SDS011;47127;47.516;8.596;2022-12-31T12:10:22;1.35;;;0.40;;
61252;SDS011;47127;47.516;8.596;2022-12-31T12:12:55;1.55;;;0.60;;
61252;SDS011;47127;47.516;8.596;2022-12-31T12:15:31;1.67;;;0.70;;
61252;SDS011;47127;47.516;8.596;2022-12-31T12:18:03;0.68;;;0.47;;
61252;SDS011;47127;47.516;8.596;2022-12-31T12:20:34;1.83;;;0.77;;
61252;SDS011;47127;47.516;8.596;2022-12-31T12:23:11;0.82;;;0.68;;
61252;SDS011;47127;47.516;8.596;2022-12-31T12:25:39;1.23;;;0.50;;
61252;SDS011;47127;47.516;8.596;2022-12-31T12:28:10;1.20;;;0.40;;
61252;SDS011;47127;47.516;8.596;2022-12-31T12:30:43;2.60;;;0.70;;
61252;SDS011;47127;47.516;8.596;2022-12-31T12:33:17;0.85;;;0.50;;
61252;SDS011;47127;47.516;8.596;2022-12-31T12:35:44;2.25;;;0.95;;
61252;SDS011;47127;47.516;8.596;2022-12-31T12:38:15;2.33;;;0.85;;
61252;SDS011;47127;47.516;8.596;2022-12-31T12:40:51;1.42;;;0.77;;
61252;SDS011;47127;47.516;8.596;2022-12-31T12:43:23;1.17;;;0.70;;
61252;SDS011;47127;47.516;8.596;2022-12-31T12:46:17;1.40;;;0.70;;
61252;SDS011;47127;47.516;8.596;2022-12-31T12:48:56;1.45;;;0.85;;
61252;SDS011;47127;47.516;8.596;2022-12-31T12:57:25;1.38;;;0.60;;
61252;SDS011;47127;47.516;8.596;2022-12-31T13:00:08;1.63;;;0.60;;
61252;SDS011;47127;47.516;8.596;2022-12-31T13:08:46;2.30;;;0.98;;
61252;SDS011;47127;47.516;8.596;2022-12-31T13:11:36;3.00;;;0.80;;
61252;SDS011;47127;47.516;8.596;2022-12-31T13:17:31;0.82;;;0.50;;
61252;SDS011;47127;47.516;8.596;2022-12-31T13:23:01;2.55;;;0.60;;
61252;SDS011;47127;47.516;8.596;2022-12-31T13:25:37;0.98;;;0.65;;
61252;SDS011;47127;47.516;8.596;2022-12-31T13:28:15;4.78;;;2.25;;
61252;SDS011;47127;47.516;8.596;2022-12-31T13:30:44;3.55;;;1.90;;
61252;SDS011;47127;47.516;8.596;2022-12-31T13:33:19;2.85;;;1.00;;
61252;SDS011;47127;47.516;8.596;2022-12-31T13:38:28;2.20;;;0.90;;
61252;SDS011;47127;47.516;8.596;2022-12-31T13:41:04;2.85;;;0.90;;
61252;SDS011;47127;47.516;8.596;2022-12-31T13:43:47;1.90;;;0.90;;
61252;SDS011;47127;47.516;8.596;2022-12-31T13:46:37;5.55;;;1.85;;
61252;SDS011;47127;47.516;8.596;2022-12-31T13:54:35;1.75;;;0.65;;
61252;SDS011;47127;47.516;8.596;2022-12-31T14:00:20;7.72;;;1.70;;
61252;SDS011;47127;47.516;8.596;2022-12-31T14:02:53;33.90;;;23.40;;
61252;SDS011;47127;47.516;8.596;2022-12-31T14:05:33;25.17;;;12.32;;
61252;SDS011;47127;47.516;8.596;2022-12-31T14:08:01;18.30;;;8.02;;
61252;SDS011;47127;47.516;8.596;2022-12-31T14:21:56;2.92;;;0.85;;
61252;SDS011;47127;47.516;8.596;2022-12-31T14:24:47;2.45;;;0.70;;
61252;SDS011;47127;47.516;8.596;2022-12-31T14:27:21;33.30;;;10.48;;
61252;SDS011;47127;47.516;8.596;2022-12-31T14:29:57;35.97;;;11.05;;
61252;SDS011;47127;47.516;8.596;2022-12-31T14:38:02;36.47;;;20.65;;
61252;SDS011;47127;47.516;8.596;2022-12-31T14:43:33;1.10;;;0.60;;
61252;SDS011;47127;47.516;8.596;2022-12-31T14:52:18;2.55;;;1.30;;
61252;SDS011;47127;47.516;8.596;2022-12-31T14:57:34;0.95;;;0.70;;
61252;SDS011;47127;47.516;8.596;2022-12-31T15:00:20;1.80;;;0.70;;
61252;SDS011;47127;47.516;8.596;2022-12-31T15:02:52;1.92;;;0.75;;
61252;SDS011;47127;47.516;8.596;2022-12-31T15:05:20;2.33;;;1.17;;
61252;SDS011;47127;47.516;8.596;2022-12-31T15:13:11;3.00;;;0.90;;
61252;SDS011;47127;47.516;8.596;2022-12-31T15:21:30;4.85;;;2.05;;
61252;SDS011;47127;47.516;8.596;2022-12-31T15:24:11;7.25;;;3.40;;
61252;SDS011;47127;47.516;8.596;2022-12-31T15:26:50;4.05;;;1.60;;
61252;SDS011;47127;47.516;8.596;2022-12-31T15:29:28;2.38;;;1.10;;
61252;SDS011;47127;47.516;8.596;2022-12-31T15:31:57;3.67;;;0.90;;
61252;SDS011;47127;47.516;8.596;2022-12-31T15:34:29;5.65;;;1.13;;
61252;SDS011;47127;47.516;8.596;2022-12-31T15:37:01;4.13;;;1.75;;
61252;SDS011;47127;47.516;8.596;2022-12-31T15:39:39;5.00;;;1.80;;
61252;SDS011;47127;47.516;8.596;2022-12-31T15:42:26;4.15;;;1.83;;
61252;SDS011;47127;47.516;8.596;2022-12-31T15:45:00;4.32;;;1.60;;
61252;SDS011;47127;47.516;8.596;2022-12-31T15:47:31;3.35;;;1.38;;
61252;SDS011;47127;47.516;8.596;2022-12-31T15:50:22;1.85;;;1.10;;
61252;SDS011;47127;47.516;8.596;2022-12-31T15:52:54;3.55;;;1.10;;
61252;SDS011;47127;47.516;8.596;2022-12-31T15:55:29;4.60;;;1.75;;
61252;SDS011;47127;47.516;8.596;2022-12-31T16:03:41;2.85;;;1.40;;
61252;SDS011;47127;47.516;8.596;2022-12-31T16:06:11;2.28;;;0.80;;
61252;SDS011;47127;47.516;8.596;2022-12-31T16:08:38;5.20;;;1.40;;
61252;SDS011;47127;47.516;8.596;2022-12-31T16:11:08;3.20;;;1.25;;
61252;SDS011;47127;47.516;8.596;2022-12-31T16:13:35;2.25;;;1.10;;
61252;SDS011;47127;47.516;8.596;2022-12-31T16:16:06;2.17;;;1.08;;
61252;SDS011;47127;47.516;8.596;2022-12-31T16:18:52;3.55;;;1.15;;
61252;SDS011;47127;47.516;8.596;2022-12-31T16:21:28;3.38;;;1.52;;
61252;SDS011;47127;47.516;8.596;2022-12-31T16:24:02;2.38;;;1.10;;
61252;SDS011;47127;47.516;8.596;2022-12-31T16:26:34;3.00;;;1.58;;
61252;SDS011;47127;47.516;8.596;2022-12-31T16:29:12;4.78;;;2.15;;
61252;SDS011;47127;47.516;8.596;2022-12-31T16:31:41;7.07;;;2.15;;
61252;SDS011;47127;47.516;8.596;2022-12-31T16:34:15;4.97;;;2.45;;
61252;SDS011;47127;47.516;8.596;2022-12-31T16:36:53;4.18;;;2.00;;
61252;SDS011;47127;47.516;8.596;2022-12-31T16:39:27;8.02;;;1.77;;
61252;SDS011;47127;47.516;8.596;2022-12-31T16:44:38;5.32;;;2.08;;
61252;SDS011;47127;47.516;8.596;2022-12-31T16:47:05;6.03;;;2.13;;
61252;SDS011;47127;47.516;8.596;2022-12-31T16:49:34;5.57;;;2.10;;
61252;SDS011;47127;47.516;8.596;2022-12-31T16:52:17;4.18;;;2.08;;
61252;SDS011;47127;47.516;8.596;2022-12-31T16:54:49;2.90;;;1.88;;
61252;SDS011;47127;47.516;8.596;2022-12-31T16:57:20;4.97;;;2.20;;
61252;SDS011;47127;47.516;8.596;2022-12-31T16:59:49;3.63;;;1.80;;
61252;SDS011;47127;47.516;8.596;2022-12-31T17:02:21;4.68;;;2.13;;
61252;SDS011;47127;47.516;8.596;2022-12-31T17:04:53;4.85;;;2.05;;
61252;SDS011;47127;47.516;8.596;2022-12-31T17:07:23;6.78;;;3.30;;
61252;SDS011;47127;47.516;8.596;2022-12-31T17:12:33;11.02;;;4.72;;
61252;SDS011;47127;47.516;8.596;2022-12-31T17:15:04;15.85;;;9.73;;
61252;SDS011;47127;47.516;8.596;2022-12-31T17:17:32;32.55;;;19.38;;
61252;SDS011;47127;47.516;8.596;2022-12-31T17:20:02;23.70;;;13.27;;
61252;SDS011;47127;47.516;8.596;2022-12-31T17:22:34;13.35;;;6.90;;
61252;SDS011;47127;47.516;8.596;2022-12-31T17:25:06;9.75;;;5.38;;
61252;SDS011;47127;47.516;8.596;2022-12-31T17:27:38;13.00;;;6.70;;
61252;SDS011;47127;47.516;8.596;2022-12-31T17:30:37;11.60;;;7.20;;
61252;SDS011;47127;47.516;8.596;2022-12-31T17:33:01;9.32;;;4.80;;
61252;SDS011;47127;47.516;8.596;2022-12-31T17:35:38;7.35;;;3.55;;
61252;SDS011;47127;47.516;8.596;2022-12-31T17:40:46;5.82;;;2.72;;
61252;SDS011;47127;47.516;8.596;2022-12-31T17:43:15;5.45;;;2.80;;
61252;SDS011;47127;47.516;8.596;2022-12-31T17:45:43;6.18;;;3.53;;
61252;SDS011;47127;47.516;8.596;2022-12-31T17:48:11;7.88;;;3.97;;
61252;SDS011;47127;47.516;8.596;2022-12-31T17:50:46;10.52;;;3.80;;
61252;SDS011;47127;47.516;8.596;2022-12-31T17:53:13;17.90;;;8.88;;
61252;SDS011;47127;47.516;8.596;2022-12-31T17:55:39;14.90;;;9.05;;
61252;SDS011;47127;47.516;8.596;2022-12-31T17:58:06;19.67;;;10.60;;
61252;SDS011;47127;47.516;8.596;2022-12-31T18:00:36;16.63;;;9.05;;
61252;SDS011;47127;47.516;8.596;2022-12-31T18:03:01;18.38;;;10.57;;
61252;SDS011;47127;47.516;8.596;2022-12-31T18:05:27;16.90;;;10.15;;
61252;SDS011;47127;47.516;8.596;2022-12-31T18:07:53;10.57;;;5.97;;
61252;SDS011;47127;47.516;8.596;2022-12-31T18:10:19;11.88;;;4.93;;
61252;SDS011;47127;47.516;8.596;2022-12-31T18:12:46;7.30;;;3.50;;
61252;SDS011;47127;47.516;8.596;2022-12-31T18:15:22;9.50;;;3.72;;
61252;SDS011;47127;47.516;8.596;2022-12-31T18:17:49;11.13;;;5.80;;
61252;SDS011;47127;47.516;8.596;2022-12-31T18:20:15;8.38;;;4.45;;
61252;SDS011;47127;47.516;8.596;2022-12-31T18:22:41;8.68;;;4.10;;
61252;SDS011;47127;47.516;8.596;2022-12-31T18:25:23;13.35;;;6.80;;
61252;SDS011;47127;47.516;8.596;2022-12-31T18:27:50;10.90;;;7.05;;
61252;SDS011;47127;47.516;8.596;2022-12-31T18:30:16;11.27;;;5.70;;
61252;SDS011;47127;47.516;8.596;2022-12-31T18:32:42;10.75;;;5.70;;
61252;SDS011;47127;47.516;8.596;2022-12-31T18:35:11;13.80;;;7.25;;
61252;SDS011;47127;47.516;8.596;2022-12-31T18:37:39;11.07;;;5.32;;
61252;SDS011;47127;47.516;8.596;2022-12-31T18:40:05;9.80;;;5.43;;
61252;SDS011;47127;47.516;8.596;2022-12-31T18:42:31;12.02;;;6.47;;
61252;SDS011;47127;47.516;8.596;2022-12-31T18:44:56;10.98;;;6.10;;
61252;SDS011;47127;47.516;8.596;2022-12-31T18:47:22;11.25;;;5.72;;
61252;SDS011;47127;47.516;8.596;2022-12-31T18:49:47;10.93;;;6.07;;
61252;SDS011;47127;47.516;8.596;2022-12-31T18:52:15;11.02;;;6.22;;
61252;SDS011;47127;47.516;8.596;2022-12-31T18:54:42;11.98;;;6.97;;
61252;SDS011;47127;47.516;8.596;2022-12-31T18:57:09;8.80;;;5.30;;
61252;SDS011;47127;47.516;8.596;2022-12-31T18:59:35;8.20;;;4.70;;
61252;SDS011;47127;47.516;8.596;2022-12-31T19:02:01;7.60;;;3.70;;
61252;SDS011;47127;47.516;8.596;2022-12-31T19:04:26;6.95;;;3.38;;
61252;SDS011;47127;47.516;8.596;2022-12-31T19:06:52;6.32;;;3.20;;
61252;SDS011;47127;47.516;8.596;2022-12-31T19:09:17;6.88;;;3.50;;
61252;SDS011;47127;47.516;8.596;2022-12-31T19:11:43;9.30;;;4.65;;
61252;SDS011;47127;47.516;8.596;2022-12-31T19:14:16;12.20;;;5.15;;
61252;SDS011;47127;47.516;8.596;2022-12-31T19:19:11;8.38;;;3.78;;